createdAt,value
2023-01-02T00:00:57.239Z,65.20
2023-01-02T00:03:23.834Z,64.70
2023-01-02T00:05:50.377Z,64.87
2023-01-02T00:08:16.789Z,64.57
2023-01-02T00:10:43.256Z,64.63
2023-01-02T00:13:09.693Z,63.95
2023-01-02T00:15:36.121Z,63.41
2023-01-02T00:18:02.569Z,63.50
2023-01-02T00:20:29.083Z,63.88
2023-01-02T00:22:55.509Z,63.77
2023-01-02T00:25:21.943Z,63.38
2023-01-02T00:27:48.364Z,63.22
2023-01-02T00:30:14.768Z,63.17
2023-01-02T00:32:41.211Z,62.26
2023-01-02T00:35:07.675Z,62.62
2023-01-02T00:37:34.109Z,62.68
2023-01-02T00:40:00.545Z,63.17
2023-01-02T00:42:26.985Z,61.68
2023-01-02T00:44:53.392Z,61.49
2023-01-02T00:47:19.811Z,61.41
2023-01-02T00:49:46.367Z,60.79
2023-01-02T00:52:12.871Z,61.17
2023-01-02T00:54:39.297Z,61.41
2023-01-02T00:57:05.716Z,60.77
2023-01-02T00:59:32.167Z,60.32
2023-01-02T01:01:58.741Z,60.35
2023-01-02T01:04:25.203Z,62.57
2023-01-02T01:06:51.657Z,61.88
2023-01-02T01:09:18.195Z,61.32
2023-01-02T01:11:44.618Z,61.49
2023-01-02T01:14:11.021Z,62.00
2023-01-02T01:16:37.528Z,62.01
2023-01-02T01:19:04.439Z,62.41
2023-01-02T01:21:30.856Z,62.68
2023-01-02T01:23:57.282Z,62.15
2023-01-02T01:26:23.765Z,62.33
2023-01-02T01:28:50.189Z,61.75
2023-01-02T01:31:16.693Z,61.92
2023-01-02T01:33:43.193Z,62.76
2023-01-02T01:36:09.664Z,62.29
2023-01-02T01:38:36.080Z,62.80
2023-01-02T01:41:02.511Z,62.41
2023-01-02T01:43:29.034Z,62.63
2023-01-02T01:45:55.513Z,62.41
2023-01-02T01:48:21.991Z,62.03
2023-01-02T01:50:48.413Z,62.34
2023-01-02T01:53:14.847Z,62.38
2023-01-02T01:55:41.270Z,61.78
2023-01-02T01:58:07.740Z,61.81
2023-01-02T02:00:34.157Z,61.62
2023-01-02T02:03:00.633Z,62.07
2023-01-02T02:05:27.168Z,61.42
2023-01-02T02:07:53.593Z,60.86
2023-01-02T02:10:19.992Z,61.46
2023-01-02T02:12:46.524Z,60.18
2023-01-02T02:15:12.968Z,60.18
2023-01-02T02:17:39.422Z,59.59
2023-01-02T02:20:05.870Z,59.80
2023-01-02T02:22:32.296Z,58.38
2023-01-02T02:24:58.724Z,59.22
2023-01-02T02:27:25.162Z,58.46
2023-01-02T02:29:51.600Z,57.54
2023-01-02T02:32:18.139Z,57.19
2023-01-02T02:34:44.571Z,56.88
2023-01-02T02:37:10.990Z,55.24
2023-01-02T02:39:37.419Z,54.22
2023-01-02T02:42:03.863Z,55.03
2023-01-02T02:44:30.278Z,54.58
2023-01-02T02:46:56.706Z,52.68
2023-01-02T02:49:23.164Z,54.22
2023-01-02T02:51:49.589Z,52.66
2023-01-02T02:54:16.003Z,52.73
2023-01-02T02:56:42.535Z,52.48
2023-01-02T02:59:08.958Z,52.33
2023-01-02T03:01:35.417Z,52.42
2023-01-02T03:04:01.884Z,52.30
2023-01-02T03:06:28.316Z,52.92
2023-01-02T03:08:54.748Z,50.97
2023-01-02T03:11:21.177Z,52.00
2023-01-02T03:13:47.617Z,51.86
2023-01-02T03:16:14.039Z,52.85
2023-01-02T03:18:40.531Z,52.20
2023-01-02T03:21:06.977Z,53.02
2023-01-02T03:23:33.374Z,51.45
2023-01-02T03:25:59.797Z,52.72
2023-01-02T03:28:26.221Z,51.65
2023-01-02T03:30:52.646Z,52.30
2023-01-02T03:33:19.072Z,53.16
2023-01-02T03:35:45.519Z,53.52
2023-01-02T03:38:11.935Z,53.28
2023-01-02T03:40:38.355Z,53.19
2023-01-02T03:43:04.783Z,50.64
2023-01-02T03:45:31.223Z,53.17
2023-01-02T03:47:57.763Z,52.39
2023-01-02T03:50:24.210Z,53.67
2023-01-02T03:52:50.640Z,53.77
2023-01-02T03:55:17.070Z,54.52
2023-01-02T03:57:43.491Z,53.87
2023-01-02T04:00:09.959Z,52.48
2023-01-02T04:02:36.505Z,51.18
2023-01-02T04:05:03.127Z,51.31
2023-01-02T04:07:29.569Z,52.13
2023-01-02T04:09:56.029Z,51.88
2023-01-02T04:12:22.456Z,51.84
2023-01-02T04:14:48.885Z,52.60
2023-01-02T04:17:15.313Z,51.14
2023-01-02T04:19:41.746Z,52.19
2023-01-02T04:22:08.184Z,50.89
2023-01-02T04:24:34.650Z,52.59
2023-01-02T04:27:01.100Z,51.73
2023-01-02T04:29:27.511Z,50.39
2023-01-02T04:31:53.939Z,52.09
2023-01-02T04:34:20.361Z,51.64
2023-01-02T04:36:46.780Z,50.71
2023-01-02T04:39:13.295Z,51.04
2023-01-02T04:41:39.742Z,50.43
2023-01-02T04:44:06.203Z,51.35
2023-01-02T04:46:32.699Z,51.50
2023-01-02T04:48:59.163Z,50.73
2023-01-02T04:51:25.587Z,51.19
2023-01-02T04:53:52.029Z,51.63
2023-01-02T04:56:18.449Z,51.77
2023-01-02T04:58:44.859Z,51.18
2023-01-02T05:01:11.512Z,51.51
2023-01-02T05:03:38.131Z,51.16
2023-01-02T05:06:04.649Z,51.52
2023-01-02T05:08:31.145Z,51.00
2023-01-02T05:10:57.564Z,50.90
2023-01-02T05:13:23.998Z,50.29
2023-01-02T05:15:50.423Z,50.03
2023-01-02T05:18:16.911Z,50.82
2023-01-02T05:20:43.326Z,50.28
2023-01-02T05:23:09.754Z,50.24
2023-01-02T05:25:36.206Z,50.70
2023-01-02T05:28:02.667Z,50.39
2023-01-02T05:30:29.102Z,50.20
2023-01-02T05:32:55.551Z,50.83
2023-01-02T05:35:25.659Z,50.45
2023-01-02T05:37:54.994Z,51.30
2023-01-02T05:40:21.455Z,51.07
2023-01-02T05:42:47.900Z,50.48
2023-01-02T05:45:14.338Z,50.63
2023-01-02T05:47:40.764Z,50.18
2023-01-02T05:50:07.174Z,50.48
2023-01-02T05:52:33.618Z,50.71
2023-01-02T05:55:00.023Z,50.99
2023-01-02T05:57:26.449Z,50.49
2023-01-02T05:59:52.918Z,50.07
2023-01-02T06:02:19.480Z,50.31
2023-01-02T06:04:46.007Z,50.43
2023-01-02T06:07:12.456Z,51.25
2023-01-02T06:09:38.937Z,50.63
2023-01-02T06:12:05.348Z,50.83
2023-01-02T06:14:31.764Z,50.01
2023-01-02T06:16:58.214Z,50.47
2023-01-02T06:19:24.665Z,50.70
2023-01-02T06:21:51.086Z,50.80
2023-01-02T06:24:17.542Z,50.28
2023-01-02T06:26:43.996Z,50.85
2023-01-02T06:29:10.416Z,49.77
2023-01-02T06:31:39.733Z,50.77
2023-01-02T06:34:06.519Z,51.20
2023-01-02T06:36:33.011Z,50.76
2023-01-02T06:38:59.440Z,51.30
2023-01-02T06:41:25.909Z,51.37
2023-01-02T06:43:52.378Z,51.72
2023-01-02T06:46:18.867Z,52.07
2023-01-02T06:48:45.351Z,52.06
2023-01-02T06:51:11.760Z,50.94
2023-01-02T06:53:38.223Z,51.64
2023-01-02T06:56:04.654Z,52.00
2023-01-02T06:58:31.079Z,51.10
2023-01-02T07:00:57.524Z,51.35
2023-01-02T07:03:23.976Z,51.44
2023-01-02T07:05:50.393Z,51.65
2023-01-02T07:08:16.848Z,50.59
2023-01-02T07:10:45.568Z,50.61
2023-01-02T07:13:15.890Z,51.48
2023-01-02T07:15:42.318Z,50.71
2023-01-02T07:18:08.761Z,50.86
2023-01-02T07:20:35.209Z,51.52
2023-01-02T07:23:01.641Z,51.06
2023-01-02T07:25:28.074Z,51.40
2023-01-02T07:27:54.481Z,51.89
2023-01-02T07:30:20.977Z,51.15
2023-01-02T07:32:47.468Z,51.79
2023-01-02T07:35:13.930Z,51.74
2023-01-02T07:37:40.376Z,52.11
2023-01-02T07:40:06.829Z,51.44
2023-01-02T07:42:33.293Z,51.35
2023-01-02T07:44:59.709Z,51.98
2023-01-02T07:47:26.124Z,52.37
2023-01-02T07:49:52.584Z,52.02
2023-01-02T07:52:19.012Z,51.30
2023-01-02T07:54:45.422Z,51.13
2023-01-02T07:57:11.848Z,52.29
2023-01-02T07:59:38.297Z,52.56
2023-01-02T08:02:04.853Z,52.75
2023-01-02T08:04:31.404Z,52.26
2023-01-02T08:06:57.860Z,51.42
2023-01-02T08:09:24.307Z,51.90
2023-01-02T08:11:50.757Z,51.51
2023-01-02T08:14:23.239Z,51.54
2023-01-02T08:16:50.272Z,51.25
2023-01-02T08:19:16.756Z,51.82
2023-01-02T08:21:43.186Z,51.90
2023-01-02T08:24:09.613Z,51.88
2023-01-02T08:26:36.050Z,52.01
2023-01-02T08:29:02.456Z,52.19
2023-01-02T08:31:28.947Z,50.62
2023-01-02T08:33:55.441Z,51.71
2023-01-02T08:36:21.866Z,51.79
2023-01-02T08:38:48.272Z,51.82
2023-01-02T08:41:14.671Z,51.49
2023-01-02T08:43:41.079Z,51.53
2023-01-02T08:46:07.565Z,51.89
2023-01-02T08:48:34.022Z,52.64
2023-01-02T08:51:00.446Z,52.20
2023-01-02T08:53:26.880Z,52.68
2023-01-02T08:55:53.320Z,52.41
2023-01-02T08:58:19.774Z,51.13
2023-01-02T09:00:46.216Z,51.00
2023-01-02T09:03:12.706Z,51.03
2023-01-02T09:05:39.193Z,52.05
2023-01-02T09:08:05.614Z,52.12
2023-01-02T09:10:32.017Z,51.37
2023-01-02T09:12:58.446Z,50.30
2023-01-02T09:15:25.606Z,52.10
2023-01-02T09:17:53.081Z,50.69
2023-01-02T09:20:19.933Z,51.32
2023-01-02T09:22:46.356Z,51.64
2023-01-02T09:25:12.895Z,51.43
2023-01-02T09:27:39.334Z,51.57
2023-01-02T09:30:05.785Z,52.37
2023-01-02T09:32:32.234Z,52.17
2023-01-02T09:34:58.709Z,52.75
2023-01-02T09:37:25.178Z,52.28
2023-01-02T09:39:51.598Z,51.97
2023-01-02T09:42:18.051Z,52.18
2023-01-02T09:44:44.527Z,51.69
2023-01-02T09:47:12.267Z,50.87
2023-01-02T09:49:41.012Z,51.86
2023-01-02T09:52:15.479Z,50.98
2023-01-02T09:55:04.116Z,52.04
2023-01-02T09:57:47.439Z,52.42
2023-01-02T10:03:24.222Z,52.37
2023-01-02T10:05:57.472Z,52.34
2023-01-02T10:11:07.173Z,52.92
2023-01-02T10:16:20.282Z,50.48
2023-01-02T10:18:46.774Z,51.44
2023-01-02T10:21:13.214Z,51.55
2023-01-02T10:23:39.616Z,50.38
2023-01-02T10:26:06.069Z,50.98
2023-01-02T10:28:32.505Z,50.85
2023-01-02T10:31:03.953Z,50.21
2023-01-02T10:33:33.344Z,49.60
2023-01-02T10:35:59.782Z,50.76
2023-01-02T10:38:26.603Z,49.79
2023-01-02T10:40:53.187Z,48.71
2023-01-02T10:43:19.817Z,48.69
2023-01-02T10:45:47.392Z,49.14
2023-01-02T10:48:14.995Z,49.42
2023-01-02T10:50:41.499Z,48.69
2023-01-02T10:53:07.968Z,48.85
2023-01-02T10:55:34.827Z,49.11
2023-01-02T10:58:02.527Z,48.94
2023-01-02T11:00:30.113Z,49.69
2023-01-02T11:02:58.662Z,49.58
2023-01-02T11:05:26.268Z,49.90
2023-01-02T11:07:53.833Z,50.76
2023-01-02T11:10:21.419Z,50.13
2023-01-02T11:12:48.016Z,49.80
2023-01-02T11:15:15.586Z,49.48
2023-01-02T11:17:42.185Z,49.78
2023-01-02T11:20:08.635Z,48.58
2023-01-02T11:22:37.419Z,49.54
2023-01-02T11:25:04.996Z,48.49
2023-01-02T11:27:32.593Z,48.54
2023-01-02T11:30:00.204Z,49.13
2023-01-02T11:32:27.752Z,48.73
2023-01-02T11:34:55.349Z,48.50
2023-01-02T11:37:22.947Z,48.01
2023-01-02T11:39:49.407Z,47.47
2023-01-02T11:42:16.121Z,47.79
2023-01-02T11:44:43.767Z,47.48
2023-01-02T11:47:11.352Z,47.80
2023-01-02T11:49:38.952Z,47.51
2023-01-02T11:52:05.786Z,48.07
2023-01-02T11:54:33.096Z,46.27
2023-01-02T11:57:00.700Z,46.60
2023-01-02T11:59:28.293Z,46.41
2023-01-02T12:01:55.055Z,45.51
2023-01-02T12:04:21.622Z,45.92
2023-01-02T12:06:48.098Z,45.64
2023-01-02T12:09:14.547Z,45.84
2023-01-02T12:11:41.007Z,46.24
2023-01-02T12:14:07.437Z,46.00
2023-01-02T12:16:34.509Z,45.53
2023-01-02T12:19:02.050Z,45.95
2023-01-02T12:21:29.618Z,45.10
2023-01-02T12:23:56.223Z,45.22
2023-01-02T12:26:22.807Z,45.49
2023-01-02T12:28:49.383Z,45.16
2023-01-02T12:31:16.052Z,45.57
2023-01-02T12:33:42.553Z,45.41
2023-01-02T12:36:08.987Z,46.44
2023-01-02T12:38:35.414Z,46.45
2023-01-02T12:41:01.849Z,47.04
2023-01-02T12:43:28.296Z,46.85
2023-01-02T12:45:55.644Z,46.65
2023-01-02T12:48:23.223Z,47.69
2023-01-02T12:50:50.791Z,47.41
2023-01-02T12:53:17.308Z,48.04
2023-01-02T12:55:43.738Z,48.74
2023-01-02T12:58:10.174Z,49.05
2023-01-02T13:00:37.204Z,46.43
2023-01-02T13:03:03.705Z,48.45
2023-01-02T13:05:30.394Z,48.41
2023-01-02T13:07:57.041Z,48.71
2023-01-02T13:10:23.658Z,49.68
2023-01-02T13:12:51.225Z,48.76
2023-01-02T13:15:18.839Z,48.46
2023-01-02T13:17:46.533Z,49.40
2023-01-02T13:20:14.098Z,48.95
2023-01-02T13:22:41.624Z,48.69
2023-01-02T13:25:08.117Z,48.05
2023-01-02T13:27:34.538Z,46.84
2023-01-02T13:30:00.976Z,48.24
2023-01-02T13:32:27.421Z,48.76
2023-01-02T13:34:54.529Z,47.82
2023-01-02T13:37:22.194Z,47.97
2023-01-02T13:39:48.808Z,47.97
2023-01-02T13:42:16.389Z,47.25
2023-01-02T13:44:44.989Z,45.37
2023-01-02T13:47:11.618Z,44.10
2023-01-02T13:49:39.156Z,45.43
2023-01-02T13:52:05.779Z,43.15
2023-01-02T13:54:33.374Z,44.56
2023-01-02T13:57:00.009Z,44.67
2023-01-02T13:59:41.884Z,45.35
2023-01-02T14:02:10.404Z,45.96
2023-01-02T14:04:37.831Z,45.70
2023-01-02T14:07:04.337Z,46.85
2023-01-02T14:09:30.742Z,47.96
2023-01-02T14:11:57.788Z,48.76
2023-01-02T14:14:25.162Z,49.59
2023-01-02T14:16:52.740Z,49.67
2023-01-02T14:19:19.189Z,51.51
2023-01-02T14:21:45.653Z,50.74
2023-01-02T14:24:16.801Z,52.17
2023-01-02T14:26:45.329Z,53.39
2023-01-02T14:29:11.773Z,53.74
2023-01-02T14:31:39.380Z,53.81
2023-01-02T14:34:06.968Z,54.09
2023-01-02T14:36:34.601Z,55.17
2023-01-02T14:39:01.022Z,55.17
2023-01-02T14:41:27.847Z,54.87
2023-01-02T14:43:54.290Z,56.75
2023-01-02T14:46:21.075Z,57.45
2023-01-02T14:48:47.522Z,57.09
2023-01-02T14:51:13.954Z,57.88
2023-01-02T14:53:40.466Z,59.52
2023-01-02T14:56:07.399Z,60.37
2023-01-02T14:58:36.121Z,61.94
2023-01-02T15:01:04.885Z,63.87
2023-01-02T15:03:32.339Z,64.94
2023-01-02T15:06:17.867Z,66.38
2023-01-02T15:08:44.448Z,67.92
2023-01-02T15:11:11.101Z,69.88
2023-01-02T15:14:04.708Z,70.33
2023-01-02T15:16:25.451Z,70.16
2023-01-02T15:18:52.954Z,70.43
2023-01-02T15:21:24.367Z,69.85
2023-01-02T15:23:52.169Z,70.13
2023-01-02T15:26:33.091Z,68.69
2023-01-02T15:29:01.133Z,67.68
2023-01-02T15:31:27.625Z,67.53
2023-01-02T15:33:54.147Z,68.27
2023-01-02T15:36:21.172Z,67.94
2023-01-02T15:38:48.749Z,67.88
2023-01-02T15:41:16.347Z,67.23
2023-01-02T15:43:42.804Z,69.04
2023-01-02T15:46:09.560Z,67.78
2023-01-02T15:48:37.102Z,67.53
2023-01-02T15:51:04.714Z,68.33
2023-01-02T15:53:31.282Z,69.94
2023-01-02T15:55:58.905Z,70.49
2023-01-02T15:58:26.489Z,71.07
2023-01-02T16:00:53.146Z,71.82
2023-01-02T16:03:20.712Z,72.72
2023-01-02T16:05:48.250Z,72.77
2023-01-02T16:08:14.723Z,73.07
2023-01-02T16:10:43.926Z,72.97
2023-01-02T16:13:15.064Z,72.64
2023-01-02T16:15:41.660Z,73.86
2023-01-02T16:18:09.246Z,74.29
2023-01-02T16:20:35.829Z,72.03
2023-01-02T16:23:02.267Z,73.19
2023-01-02T16:25:28.733Z,76.21
2023-01-02T16:27:55.232Z,76.14
2023-01-02T16:30:21.682Z,75.56
2023-01-02T16:32:48.789Z,76.90
2023-01-02T16:35:16.385Z,77.04
2023-01-02T16:37:42.973Z,77.25
2023-01-02T16:40:09.586Z,76.60
2023-01-02T16:42:36.172Z,76.63
2023-01-02T16:45:03.766Z,76.01
2023-01-02T16:47:30.359Z,76.23
2023-01-02T16:49:57.958Z,76.78
2023-01-02T16:52:24.379Z,76.94
2023-01-02T16:54:54.234Z,77.39
2023-01-02T16:57:21.727Z,77.53
2023-01-02T16:59:48.343Z,76.90
2023-01-02T17:02:14.922Z,78.05
2023-01-02T17:04:41.508Z,77.62
2023-01-02T17:07:10.089Z,77.70
2023-01-02T17:09:36.588Z,77.76
2023-01-02T17:12:03.258Z,79.51
2023-01-02T17:14:30.099Z,79.90
2023-01-02T17:16:57.464Z,79.90
2023-01-02T17:19:24.069Z,80.08
2023-01-02T17:21:50.658Z,80.10
2023-01-02T17:24:18.229Z,80.05
2023-01-02T17:26:44.651Z,80.40
2023-01-02T17:29:11.452Z,80.45
2023-01-02T17:31:39.025Z,80.62
2023-01-02T17:34:06.610Z,80.65
2023-01-02T17:36:34.206Z,80.27
2023-01-02T17:39:01.247Z,80.00
2023-01-02T17:41:27.662Z,80.48
2023-01-02T17:44:01.952Z,79.31
2023-01-02T17:49:17.298Z,79.68
2023-01-02T17:51:44.885Z,79.87
2023-01-02T17:54:12.463Z,80.13
2023-01-02T17:56:39.032Z,80.22
2023-01-02T17:59:05.646Z,77.71
2023-01-02T18:01:33.301Z,79.29
2023-01-02T18:04:00.854Z,80.34
2023-01-02T18:06:27.999Z,81.33
2023-01-02T18:08:54.498Z,81.40
2023-01-02T18:11:20.940Z,81.32
2023-01-02T18:13:48.208Z,81.62
2023-01-02T18:16:14.820Z,81.48
2023-01-02T18:18:41.262Z,81.61
2023-01-02T18:21:07.989Z,80.87
2023-01-02T18:23:34.598Z,81.05
2023-01-02T18:26:02.211Z,81.00
2023-01-02T18:28:28.659Z,80.68
2023-01-02T18:30:55.411Z,80.54
2023-01-02T18:33:22.344Z,81.09
2023-01-02T18:35:58.164Z,80.45
2023-01-02T18:38:25.411Z,80.67
2023-01-02T18:40:52.779Z,80.60
2023-01-02T18:43:20.378Z,80.77
2023-01-02T18:45:47.026Z,80.30
2023-01-02T18:48:14.636Z,80.68
2023-01-02T18:50:41.074Z,80.43
2023-01-02T18:53:08.777Z,81.03
2023-01-02T18:55:40.366Z,80.28
2023-01-02T18:58:07.994Z,80.59
2023-01-02T19:00:34.477Z,80.84
2023-01-02T19:03:02.292Z,80.84
2023-01-02T19:05:29.826Z,81.09
2023-01-02T19:07:56.440Z,81.53
2023-01-02T19:10:23.029Z,81.37
2023-01-02T19:12:49.837Z,80.60
2023-01-02T19:15:16.255Z,80.71
2023-01-02T19:17:42.765Z,81.19
2023-01-02T19:20:09.231Z,80.92
2023-01-02T19:22:35.656Z,79.33
2023-01-02T19:25:05.576Z,79.93
2023-01-02T19:27:33.532Z,79.19
2023-01-02T19:30:01.127Z,80.17
2023-01-02T19:32:27.774Z,80.30
2023-01-02T19:34:54.251Z,79.46
2023-01-02T19:37:20.687Z,79.18
2023-01-02T19:39:47.238Z,79.27
2023-01-02T19:42:14.587Z,78.76
2023-01-02T19:44:41.207Z,79.09
2023-01-02T19:47:07.827Z,78.73
2023-01-02T19:49:34.401Z,78.67
2023-01-02T19:52:00.997Z,77.27
2023-01-02T19:54:27.674Z,78.11
2023-01-02T19:56:54.270Z,79.14
2023-01-02T19:59:20.748Z,78.68
2023-01-02T20:01:47.560Z,78.56
2023-01-02T20:04:14.141Z,78.45
2023-01-02T20:06:41.672Z,78.60
2023-01-02T20:09:09.216Z,78.43
2023-01-02T20:11:35.775Z,77.65
2023-01-02T20:14:02.211Z,78.54
2023-01-02T20:16:28.623Z,78.19
2023-01-02T20:18:55.059Z,77.24
2023-01-02T20:21:21.471Z,77.50
2023-01-02T20:23:54.439Z,77.93
2023-01-02T20:26:22.641Z,77.50
2023-01-02T20:28:50.075Z,78.35
2023-01-02T20:31:16.542Z,77.00
2023-01-02T20:33:43.284Z,77.13
2023-01-02T20:36:13.710Z,76.93
2023-01-02T20:38:42.532Z,77.04
2023-01-02T20:41:09.011Z,77.44
2023-01-02T20:43:35.457Z,78.24
2023-01-02T20:46:01.978Z,78.08
2023-01-02T20:48:28.985Z,78.22
2023-01-02T20:50:55.911Z,77.78
2023-01-02T20:53:22.394Z,78.36
2023-01-02T20:55:49.001Z,78.99
2023-01-02T20:58:15.572Z,79.12
2023-01-02T21:00:42.030Z,78.62
2023-01-02T21:03:08.770Z,79.15
2023-01-02T21:05:35.337Z,79.36
2023-01-02T21:08:03.189Z,78.59
2023-01-02T21:10:29.804Z,78.82
2023-01-02T21:12:56.245Z,79.15
2023-01-02T21:15:22.705Z,78.99
2023-01-02T21:17:49.216Z,79.44
2023-01-02T21:20:15.648Z,79.51
2023-01-02T21:22:42.185Z,79.66
2023-01-02T21:25:11.893Z,79.87
2023-01-02T21:27:38.316Z,79.60
2023-01-02T21:30:04.745Z,79.62
2023-01-02T21:32:31.190Z,80.02
2023-01-02T21:34:57.733Z,79.47
2023-01-02T21:37:24.182Z,79.54
2023-01-02T21:39:50.594Z,79.18
2023-01-02T21:42:17.050Z,78.22
2023-01-02T21:44:43.505Z,78.59
2023-01-02T21:47:10.131Z,78.60
2023-01-02T21:49:36.569Z,77.82
2023-01-02T21:52:03.065Z,77.75
2023-01-02T21:54:29.466Z,76.83
2023-01-02T21:56:55.971Z,78.18
2023-01-02T21:59:22.467Z,77.06
2023-01-02T22:01:49.012Z,77.39
2023-01-02T22:04:15.601Z,78.46
2023-01-02T22:07:20.925Z,78.48
2023-01-02T22:09:28.479Z,78.13
2023-01-02T22:11:54.939Z,78.40
2023-01-02T22:14:21.433Z,78.56
2023-01-02T22:16:48.069Z,78.58
2023-01-02T22:19:14.671Z,79.25
2023-01-02T22:21:41.131Z,78.56
2023-01-02T22:24:07.595Z,78.83
2023-01-02T22:26:34.045Z,79.05
2023-01-02T22:29:00.452Z,79.12
2023-01-02T22:31:27.125Z,79.67
2023-01-02T22:33:53.573Z,79.14
2023-01-02T22:36:20.110Z,79.64
2023-01-02T22:39:17.550Z,79.65
2023-01-02T22:41:33.153Z,79.82
2023-01-02T22:43:59.665Z,79.03
2023-01-02T22:46:26.156Z,79.63
2023-01-02T22:48:52.612Z,79.64
2023-01-02T22:51:25.994Z,80.04
2023-01-02T22:54:03.214Z,78.80
2023-01-02T22:56:29.772Z,79.29
2023-01-02T22:58:56.203Z,79.30
2023-01-02T23:01:22.807Z,79.21
2023-01-02T23:03:49.382Z,79.00
2023-01-02T23:06:21.704Z,79.46
2023-01-02T23:08:48.781Z,77.97
2023-01-02T23:11:15.360Z,78.36
2023-01-02T23:13:41.807Z,78.91
2023-01-02T23:16:08.282Z,78.45
2023-01-02T23:18:34.720Z,78.51
2023-01-02T23:21:01.183Z,78.67
2023-01-02T23:23:27.606Z,78.21
2023-01-02T23:25:54.050Z,73.40
2023-01-02T23:28:56.231Z,75.78
2023-01-02T23:31:06.970Z,72.57
2023-01-02T23:33:33.483Z,72.92
2023-01-02T23:35:59.892Z,72.68
2023-01-02T23:38:26.314Z,71.53
2023-01-02T23:40:52.757Z,73.48
2023-01-02T23:43:19.171Z,75.27
2023-01-02T23:45:45.626Z,73.42
2023-01-02T23:48:12.093Z,75.17
2023-01-02T23:50:38.513Z,75.36
2023-01-02T23:53:04.950Z,76.98
2023-01-02T23:55:31.593Z,78.77
2023-01-02T23:57:57.997Z,79.21
